Terminal Aerodrome Forecast
Issued by NWS Tuscon, AZ

Home | Current Version | Previous Version | Text Only | Print | Product List | Glossary On
Versions: 1 2 3 4 5 6 7 8 9 10 11 12 13
000
FTUS45 KTWC 271400 AAA
TAFDUG
TAF AMD
KDUG 271437Z 2715/2812 01006KT P6SM SCT040 BKN060
     FM272000 20005KT P6SM SCT040 SCT060
     FM280300 35005KT P6SM SCT060 SCT250=

USA.gov is the U.S. government's official web portal to all federal, state and local government web resources and services.